Time;durP1;ratioP1;P1;durP2;ratioP2;P2;SDS_P1;SDS_P2;PMS_P1;PMS_P2;Temp;Humidity;BMP_temperature;BMP_pressure;BME280_temperature;BME280_humidity;BME280_pressure;Samples;Min_cycle;Max_cycle;Signal;HPM_P1;HPM_P2
2022/03/14 00:00:52;;;;;;;14.40;8.23;;;;;;;;;;4992261;28;20345;-51
2022/03/14 00:03:18;;;;;;;14.95;8.50;;;;;;;;;;4978717;28;20078;-51
2022/03/14 00:05:43;;;;;;;14.40;7.80;;;;;;;;;;5008746;28;20037;-52
2022/03/14 00:08:09;;;;;;;14.65;8.68;;;;;;;;;;5009033;28;20025;-51
2022/03/14 00:10:37;;;;;;;15.35;8.40;;;;;;;;;;4998925;28;20490;-51
2022/03/14 00:13:03;;;;;;;14.43;8.15;;;;;;;;;;4987528;28;20034;-50
2022/03/14 00:15:30;;;;;;;16.13;9.25;;;;;;;;;;4986554;28;20031;-51
2022/03/14 00:17:56;;;;;;;15.20;8.35;;;;;;;;;;4990411;28;20018;-50
2022/03/14 00:20:22;;;;;;;15.60;8.80;;;;;;;;;;5003571;28;20262;-51
2022/03/14 00:22:47;;;;;;;16.42;9.20;;;;;;;;;;4992698;28;20508;-50
2022/03/14 00:25:12;;;;;;;15.88;9.45;;;;;;;;;;4983286;28;20494;-51
2022/03/14 00:27:38;;;;;;;16.40;9.48;;;;;;;;;;4983554;28;20180;-51
2022/03/14 00:30:05;;;;;;;17.85;9.75;;;;;;;;;;4982059;28;20670;-51
2022/03/14 00:32:31;;;;;;;17.30;9.82;;;;;;;;;;4982146;28;20038;-52
2022/03/14 00:34:57;;;;;;;16.03;9.83;;;;;;;;;;4981810;28;20521;-51
2022/03/14 00:37:22;;;;;;;17.63;10.02;;;;;;;;;;4981691;28;20261;-51
2022/03/14 00:39:47;;;;;;;15.80;9.90;;;;;;;;;;4981988;28;20118;-50
2022/03/14 00:42:13;;;;;;;18.70;10.45;;;;;;;;;;4982082;28;20289;-51
2022/03/14 00:44:39;;;;;;;17.38;10.52;;;;;;;;;;4981971;28;20114;-50
2022/03/14 00:47:04;;;;;;;17.25;10.57;;;;;;;;;;4982280;28;20018;-50
2022/03/14 00:49:29;;;;;;;17.20;10.75;;;;;;;;;;4982786;28;20544;-51
2022/03/14 00:51:54;;;;;;;20.70;10.50;;;;;;;;;;4981154;28;20026;-50
2022/03/14 00:54:20;;;;;;;21.35;10.85;;;;;;;;;;4982545;28;20828;-52
2022/03/14 00:56:45;;;;;;;17.95;10.32;;;;;;;;;;4982368;28;20053;-51
2022/03/14 00:59:10;;;;;;;20.77;10.80;;;;;;;;;;4982627;28;20085;-51
2022/03/14 01:01:36;;;;;;;20.67;10.23;;;;;;;;;;4981235;28;20022;-49
2022/03/14 01:04:01;;;;;;;21.13;11.13;;;;;;;;;;4971551;28;20030;-50
2022/03/14 01:06:27;;;;;;;20.00;10.80;;;;;;;;;;5001846;28;20375;-50
2022/03/14 01:08:52;;;;;;;18.40;11.05;;;;;;;;;;5000889;28;20292;-50
2022/03/14 01:11:18;;;;;;;20.93;11.50;;;;;;;;;;4987363;28;20022;-51
2022/03/14 01:13:44;;;;;;;17.93;11.03;;;;;;;;;;4982382;28;20269;-51
2022/03/14 01:16:09;;;;;;;20.08;10.52;;;;;;;;;;4982578;28;20309;-50
2022/03/14 01:18:35;;;;;;;20.58;11.48;;;;;;;;;;4985409;28;20026;-50
2022/03/14 01:21:00;;;;;;;22.63;12.13;;;;;;;;;;4986751;28;20026;-50
2022/03/14 01:23:25;;;;;;;20.77;11.17;;;;;;;;;;4971344;28;20689;-52
2022/03/14 01:25:51;;;;;;;20.57;11.90;;;;;;;;;;4985174;28;20281;-51
2022/03/14 01:28:16;;;;;;;22.52;12.05;;;;;;;;;;4986707;28;20304;-50
2022/03/14 01:30:44;;;;;;;20.42;12.02;;;;;;;;;;4986313;28;20033;-49
2022/03/14 01:33:10;;;;;;;20.15;11.88;;;;;;;;;;4985226;28;20133;-50
2022/03/14 01:35:36;;;;;;;20.83;11.63;;;;;;;;;;4986359;28;20113;-50
2022/03/14 01:38:01;;;;;;;22.40;12.32;;;;;;;;;;4986238;28;20066;-51
2022/03/14 01:40:28;;;;;;;22.30;11.93;;;;;;;;;;4986520;28;20030;-50
2022/03/14 01:42:53;;;;;;;24.02;13.10;;;;;;;;;;4975055;28;20282;-50
2022/03/14 01:45:19;;;;;;;24.00;13.98;;;;;;;;;;4995533;28;20073;-50
2022/03/14 01:47:45;;;;;;;21.98;12.57;;;;;;;;;;5005831;28;20057;-49
2022/03/14 01:50:10;;;;;;;21.30;11.95;;;;;;;;;;4999942;28;20030;-50
2022/03/14 01:52:35;;;;;;;21.17;12.20;;;;;;;;;;4986022;28;20033;-51
2022/03/14 01:55:01;;;;;;;19.80;11.83;;;;;;;;;;4985569;28;20042;-50
2022/03/14 01:57:26;;;;;;;20.38;12.10;;;;;;;;;;4986201;28;20278;-51
2022/03/14 01:59:52;;;;;;;21.02;11.57;;;;;;;;;;4986212;28;20026;-51
2022/03/14 02:02:17;;;;;;;23.13;12.33;;;;;;;;;;4979880;28;20022;-51
2022/03/14 02:04:42;;;;;;;22.57;12.67;;;;;;;;;;4985495;28;20033;-51
2022/03/14 02:07:08;;;;;;;21.20;11.53;;;;;;;;;;5005436;28;20026;-50
2022/03/14 02:09:34;;;;;;;22.15;12.30;;;;;;;;;;5005265;28;20123;-51
2022/03/14 02:12:00;;;;;;;20.15;11.70;;;;;;;;;;4985705;28;20089;-50
2022/03/14 02:14:25;;;;;;;23.63;12.80;;;;;;;;;;4985411;28;20056;-51
2022/03/14 02:16:50;;;;;;;21.67;12.32;;;;;;;;;;4985932;28;20488;-51
2022/03/14 02:19:16;;;;;;;25.35;13.48;;;;;;;;;;4985734;28;20588;-52
2022/03/14 02:21:41;;;;;;;23.00;12.60;;;;;;;;;;4984385;28;20061;-52
2022/03/14 02:24:06;;;;;;;25.10;13.03;;;;;;;;;;4975251;28;20113;-52
2022/03/14 02:26:35;;;;;;;23.95;12.90;;;;;;;;;;5004550;28;20104;-51
2022/03/14 02:29:01;;;;;;;22.80;12.55;;;;;;;;;;5004035;28;20038;-52
2022/03/14 02:31:26;;;;;;;24.15;13.73;;;;;;;;;;4989401;28;20034;-51
2022/03/14 02:33:51;;;;;;;23.03;13.20;;;;;;;;;;4985398;28;20486;-52
2022/03/14 02:36:16;;;;;;;23.03;12.97;;;;;;;;;;4984973;28;20304;-51
2022/03/14 02:38:43;;;;;;;23.37;12.67;;;;;;;;;;4985142;28;20297;-51
2022/03/14 02:41:10;;;;;;;21.58;12.98;;;;;;;;;;4985549;28;21069;-52
2022/03/14 02:43:35;;;;;;;20.23;12.55;;;;;;;;;;4967350;28;20062;-51
2022/03/14 02:46:00;;;;;;;24.17;13.20;;;;;;;;;;4985016;28;20050;-51
2022/03/14 02:48:26;;;;;;;23.37;13.20;;;;;;;;;;4985082;28;20636;-51
2022/03/14 02:50:53;;;;;;;21.55;12.63;;;;;;;;;;4984996;28;20790;-51
2022/03/14 02:53:18;;;;;;;25.48;13.98;;;;;;;;;;4984905;28;20042;-51
2022/03/14 02:55:44;;;;;;;21.77;12.77;;;;;;;;;;4984667;28;20147;-51
2022/03/14 02:58:09;;;;;;;22.90;13.82;;;;;;;;;;4985358;28;20368;-51
2022/03/14 03:00:38;;;;;;;21.55;12.68;;;;;;;;;;4983691;28;20042;-51
2022/03/14 03:03:04;;;;;;;22.90;12.85;;;;;;;;;;4972813;28;20023;-51
2022/03/14 03:05:32;;;;;;;20.75;12.88;;;;;;;;;;4996332;28;20045;-51
2022/03/14 03:08:00;;;;;;;23.27;13.10;;;;;;;;;;5002793;28;20022;-51
2022/03/14 03:10:26;;;;;;;21.75;12.25;;;;;;;;;;4997528;28;20516;-51
2022/03/14 03:12:52;;;;;;;23.40;13.43;;;;;;;;;;4984504;28;20022;-51
2022/03/14 03:15:18;;;;;;;24.00;14.18;;;;;;;;;;4984632;28;20034;-51
2022/03/14 03:17:44;;;;;;;20.88;12.88;;;;;;;;;;4984403;28;20033;-51
2022/03/14 03:20:09;;;;;;;20.27;12.50;;;;;;;;;;4984387;28;20026;-51
2022/03/14 03:22:34;;;;;;;23.95;13.68;;;;;;;;;;4976254;28;20266;-50
2022/03/14 03:25:00;;;;;;;22.30;13.60;;;;;;;;;;4976111;28;20041;-51
2022/03/14 03:27:25;;;;;;;23.43;13.20;;;;;;;;;;4984413;28;20288;-50
2022/03/14 03:29:50;;;;;;;22.33;12.68;;;;;;;;;;4984216;28;20309;-50
2022/03/14 03:32:15;;;;;;;20.83;13.10;;;;;;;;;;4984050;28;20029;-51
2022/03/14 03:34:40;;;;;;;21.50;12.27;;;;;;;;;;4984361;28;20063;-50
2022/03/14 03:37:06;;;;;;;19.57;11.67;;;;;;;;;;4982525;28;20294;-51
2022/03/14 03:39:32;;;;;;;22.30;12.68;;;;;;;;;;4984001;28;20277;-50
2022/03/14 03:41:57;;;;;;;21.70;11.98;;;;;;;;;;4980850;28;20022;-51
2022/03/14 03:44:22;;;;;;;22.63;13.50;;;;;;;;;;4992018;28;20045;-51
2022/03/14 03:46:48;;;;;;;23.88;13.10;;;;;;;;;;5003591;28;20038;-50
2022/03/14 03:49:13;;;;;;;20.42;12.35;;;;;;;;;;5003325;28;20914;-51
2022/03/14 03:51:38;;;;;;;23.00;11.97;;;;;;;;;;4986265;28;20082;-50
2022/03/14 03:54:04;;;;;;;23.77;12.70;;;;;;;;;;4983755;28;20325;-51
2022/03/14 03:56:30;;;;;;;20.38;12.45;;;;;;;;;;4983909;28;20520;-50
2022/03/14 03:58:55;;;;;;;20.88;12.32;;;;;;;;;;4983935;28;20409;-51
2022/03/14 04:01:23;;;;;;;21.00;12.27;;;;;;;;;;4983336;28;20512;-51
2022/03/14 04:03:54;;;;;;;21.38;12.68;;;;;;;;;;4968989;28;20817;-50
2022/03/14 04:06:25;;;;;;;21.75;12.23;;;;;;;;;;5003083;28;20018;-51
2022/03/14 04:08:50;;;;;;;23.17;12.13;;;;;;;;;;5003421;28;20141;-50
2022/03/14 04:11:16;;;;;;;20.90;12.05;;;;;;;;;;4989763;28;20117;-51
2022/03/14 04:13:41;;;;;;;21.48;12.88;;;;;;;;;;4983539;28;20027;-50
2022/03/14 04:16:07;;;;;;;21.60;12.67;;;;;;;;;;4983270;28;20116;-50
2022/03/14 04:18:33;;;;;;;19.95;11.98;;;;;;;;;;4976955;28;20265;-50
2022/03/14 04:20:59;;;;;;;21.33;12.95;;;;;;;;;;4982529;28;20026;-50
2022/03/14 04:23:25;;;;;;;21.95;12.48;;;;;;;;;;4968442;28;20030;-51
2022/03/14 04:25:51;;;;;;;20.48;12.45;;;;;;;;;;4999778;28;20033;-51
2022/03/14 04:28:16;;;;;;;19.65;11.82;;;;;;;;;;5002581;28;20030;-49
2022/03/14 04:30:42;;;;;;;19.60;12.10;;;;;;;;;;4994177;28;20038;-51
2022/03/14 04:33:08;;;;;;;20.55;12.13;;;;;;;;;;4982402;28;20772;-51
2022/03/14 04:35:33;;;;;;;19.63;11.50;;;;;;;;;;4982503;28;20130;-51
2022/03/14 04:37:58;;;;;;;19.87;12.17;;;;;;;;;;4981993;28;20125;-50
2022/03/14 04:40:23;;;;;;;20.00;11.88;;;;;;;;;;4982373;28;20032;-51
2022/03/14 04:42:49;;;;;;;20.60;11.67;;;;;;;;;;4981407;28;20037;-51
2022/03/14 04:45:14;;;;;;;19.38;11.57;;;;;;;;;;4981794;28;20332;-50
2022/03/14 04:47:39;;;;;;;19.83;11.57;;;;;;;;;;4981781;28;20035;-52
2022/03/14 04:50:05;;;;;;;20.63;12.27;;;;;;;;;;4981855;28;20210;-50
2022/03/14 04:52:30;;;;;;;19.60;11.38;;;;;;;;;;4981597;28;20094;-51
2022/03/14 04:54:56;;;;;;;19.25;11.73;;;;;;;;;;4981571;28;20552;-52
2022/03/14 04:57:21;;;;;;;17.20;10.93;;;;;;;;;;4980265;28;20556;-51
2022/03/14 04:59:47;;;;;;;19.30;11.80;;;;;;;;;;4965811;28;20102;-51
2022/03/14 05:02:12;;;;;;;16.97;10.37;;;;;;;;;;4975613;28;20317;-52
2022/03/14 05:04:38;;;;;;;17.63;11.27;;;;;;;;;;4971635;28;20109;-50
2022/03/14 05:07:04;;;;;;;19.08;11.30;;;;;;;;;;4972751;28;20019;-50
2022/03/14 05:09:29;;;;;;;18.67;10.68;;;;;;;;;;4971788;28;20038;-50
2022/03/14 05:11:54;;;;;;;17.17;10.40;;;;;;;;;;4965252;28;20085;-50
2022/03/14 05:14:19;;;;;;;17.70;11.00;;;;;;;;;;4964704;28;20325;-51
2022/03/14 05:16:47;;;;;;;20.05;11.32;;;;;;;;;;4974170;28;20274;-52
2022/03/14 05:19:12;;;;;;;16.90;10.77;;;;;;;;;;4968331;28;20516;-53
2022/03/14 05:21:38;;;;;;;16.83;11.50;;;;;;;;;;4961883;28;20050;-50
2022/03/14 05:24:05;;;;;;;16.90;10.88;;;;;;;;;;4962640;28;20321;-51
2022/03/14 05:26:30;;;;;;;18.83;11.13;;;;;;;;;;4962099;28;20677;-51
2022/03/14 05:28:56;;;;;;;16.43;10.40;;;;;;;;;;4961772;28;20026;-51
2022/03/14 05:31:21;;;;;;;17.27;11.00;;;;;;;;;;4961556;28;20023;-51
2022/03/14 05:33:46;;;;;;;16.13;10.65;;;;;;;;;;4963360;28;20324;-52
2022/03/14 05:36:11;;;;;;;17.67;10.73;;;;;;;;;;4982157;28;20034;-51
2022/03/14 05:38:37;;;;;;;18.00;10.60;;;;;;;;;;4980893;28;20026;-51
2022/03/14 05:41:02;;;;;;;15.93;10.70;;;;;;;;;;4982274;28;20384;-50
2022/03/14 05:43:36;;;;;;;16.97;10.33;;;;;;;;;;4967022;28;20278;-52
2022/03/14 05:46:01;;;;;;;17.50;10.20;;;;;;;;;;4981891;28;20288;-52
2022/03/14 05:48:27;;;;;;;20.70;11.10;;;;;;;;;;4981990;28;20030;-52
2022/03/14 05:50:52;;;;;;;23.73;11.13;;;;;;;;;;4981481;28;20037;-51
2022/03/14 05:53:17;;;;;;;17.60;10.10;;;;;;;;;;4981865;28;20054;-52
2022/03/14 05:55:42;;;;;;;20.27;11.13;;;;;;;;;;4981561;28;20042;-52
2022/03/14 05:58:07;;;;;;;23.50;10.97;;;;;;;;;;4977717;28;20034;-51
2022/03/14 06:00:33;;;;;;;22.73;11.25;;;;;;;;;;4978925;28;20462;-51
2022/03/14 06:02:58;;;;;;;24.25;10.55;;;;;;;;;;4971081;28;20031;-51
2022/03/14 06:05:24;;;;;;;21.40;10.47;;;;;;;;;;4983406;28;20039;-51
2022/03/14 06:07:49;;;;;;;23.35;11.50;;;;;;;;;;4986218;28;20030;-52
2022/03/14 06:10:15;;;;;;;20.50;10.18;;;;;;;;;;4985804;28;20120;-52
2022/03/14 06:12:40;;;;;;;22.40;10.88;;;;;;;;;;4990894;28;20500;-51
2022/03/14 06:15:09;;;;;;;24.33;11.02;;;;;;;;;;4991391;28;20026;-51
2022/03/14 06:17:34;;;;;;;27.83;10.82;;;;;;;;;;4987407;28;20030;-51
2022/03/14 06:19:59;;;;;;;23.85;10.27;;;;;;;;;;4988136;28;20800;-52
2022/03/14 06:22:25;;;;;;;27.50;10.57;;;;;;;;;;4981611;28;20556;-51
2022/03/14 06:24:50;;;;;;;22.90;9.70;;;;;;;;;;4983082;28;20088;-53
2022/03/14 06:27:16;;;;;;;25.50;10.30;;;;;;;;;;4988036;28;20292;-51
2022/03/14 06:29:41;;;;;;;15.70;9.50;;;;;;;;;;4985833;28;20030;-51
2022/03/14 06:32:07;;;;;;;18.90;9.85;;;;;;;;;;4984259;28;20951;-50
2022/03/14 06:34:32;;;;;;;20.67;9.85;;;;;;;;;;4984485;28;20409;-51
2022/03/14 06:36:59;;;;;;;22.30;9.33;;;;;;;;;;4984263;28;20031;-51
2022/03/14 06:39:24;;;;;;;19.60;9.70;;;;;;;;;;4984423;28;20269;-51
2022/03/14 06:41:50;;;;;;;20.40;9.47;;;;;;;;;;4983480;28;20025;-51
2022/03/14 06:44:17;;;;;;;20.38;8.55;;;;;;;;;;4983678;28;20837;-51
2022/03/14 06:46:42;;;;;;;22.95;10.13;;;;;;;;;;4983880;28;20372;-53
2022/03/14 06:49:08;;;;;;;23.55;10.48;;;;;;;;;;4983050;28;20547;-52
2022/03/14 06:51:33;;;;;;;22.15;9.77;;;;;;;;;;4984288;28;20028;-52
2022/03/14 06:53:58;;;;;;;24.52;10.68;;;;;;;;;;4982512;28;20053;-52
2022/03/14 06:56:24;;;;;;;20.13;10.07;;;;;;;;;;4984232;28;20560;-52
2022/03/14 06:58:49;;;;;;;22.13;10.43;;;;;;;;;;4984417;28;20576;-52
2022/03/14 07:01:14;;;;;;;18.63;9.70;;;;;;;;;;4984367;28;20022;-52
2022/03/14 07:03:40;;;;;;;20.30;9.40;;;;;;;;;;4977651;28;20417;-54
2022/03/14 07:06:05;;;;;;;19.92;9.00;;;;;;;;;;4982836;28;20410;-50
2022/03/14 07:08:30;;;;;;;20.30;9.65;;;;;;;;;;4984172;28;20417;-53
2022/03/14 07:10:55;;;;;;;20.23;9.27;;;;;;;;;;4984132;28;20713;-52
2022/03/14 07:13:21;;;;;;;22.30;9.87;;;;;;;;;;4984153;28;20010;-52
2022/03/14 07:15:46;;;;;;;18.30;9.40;;;;;;;;;;4983192;28;20356;-51
2022/03/14 07:18:11;;;;;;;22.67;9.90;;;;;;;;;;4983154;28;20363;-51
2022/03/14 07:20:37;;;;;;;20.80;9.03;;;;;;;;;;4983010;28;20320;-52
2022/03/14 07:23:02;;;;;;;16.58;9.13;;;;;;;;;;4975396;28;20273;-51
2022/03/14 07:25:28;;;;;;;20.75;9.40;;;;;;;;;;4984760;28;20478;-50
2022/03/14 07:27:55;;;;;;;19.75;10.07;;;;;;;;;;4984635;28;20026;-51
2022/03/14 07:30:20;;;;;;;18.65;9.68;;;;;;;;;;4984799;28;20038;-49
2022/03/14 07:32:46;;;;;;;20.88;9.73;;;;;;;;;;4984790;28;20105;-52
2022/03/14 07:35:11;;;;;;;21.20;9.40;;;;;;;;;;4984837;28;20751;-52
2022/03/14 07:37:36;;;;;;;23.27;10.45;;;;;;;;;;4983297;28;20019;-51
2022/03/14 07:40:02;;;;;;;16.47;8.83;;;;;;;;;;4984518;28;20516;-51
2022/03/14 07:42:27;;;;;;;20.23;9.70;;;;;;;;;;4971723;28;20510;-51
2022/03/14 07:44:53;;;;;;;19.67;8.97;;;;;;;;;;4976132;28;20105;-51
2022/03/14 07:47:18;;;;;;;21.13;9.40;;;;;;;;;;4977766;28;20269;-52
2022/03/14 07:49:43;;;;;;;22.25;9.70;;;;;;;;;;4983001;28;20019;-50
2022/03/14 07:52:08;;;;;;;16.97;9.53;;;;;;;;;;4983810;28;20029;-52
2022/03/14 07:54:34;;;;;;;18.23;9.33;;;;;;;;;;4983974;28;20085;-52
2022/03/14 07:56:59;;;;;;;19.08;9.43;;;;;;;;;;4982530;28;20026;-51
2022/03/14 07:59:24;;;;;;;17.33;9.90;;;;;;;;;;4983869;28;20409;-52
2022/03/14 08:01:49;;;;;;;15.70;8.27;;;;;;;;;;4982370;28;20026;-52
2022/03/14 08:04:15;;;;;;;16.63;8.87;;;;;;;;;;4974068;28;20486;-52
2022/03/14 08:06:43;;;;;;;20.00;10.00;;;;;;;;;;5003877;28;21014;-52
2022/03/14 08:09:08;;;;;;;18.63;9.55;;;;;;;;;;5003776;28;20272;-51
2022/03/14 08:11:35;;;;;;;16.50;9.25;;;;;;;;;;4988410;28;20034;-52
2022/03/14 08:14:01;;;;;;;17.55;9.85;;;;;;;;;;4998721;28;20037;-51
2022/03/14 08:16:26;;;;;;;16.95;9.90;;;;;;;;;;4984271;28;20084;-51
2022/03/14 08:18:52;;;;;;;16.55;9.48;;;;;;;;;;4984025;28;20038;-50
2022/03/14 08:21:17;;;;;;;17.70;9.67;;;;;;;;;;4983873;28;20070;-51
2022/03/14 08:23:43;;;;;;;15.68;9.40;;;;;;;;;;4967867;28;20797;-50
2022/03/14 08:26:08;;;;;;;15.45;9.50;;;;;;;;;;4976775;28;20034;-51
2022/03/14 08:28:34;;;;;;;14.40;9.23;;;;;;;;;;4963593;28;20030;-51
2022/03/14 08:31:01;;;;;;;16.92;9.52;;;;;;;;;;4964007;28;20019;-51
2022/03/14 08:33:27;;;;;;;14.48;9.15;;;;;;;;;;4962802;28;20022;-51
2022/03/14 08:35:54;;;;;;;15.70;8.77;;;;;;;;;;4963975;28;20015;-51
2022/03/14 08:38:19;;;;;;;15.07;9.40;;;;;;;;;;4964503;28;20033;-52
2022/03/14 08:40:44;;;;;;;15.07;8.97;;;;;;;;;;4972950;28;20030;-51
2022/03/14 08:43:10;;;;;;;18.47;10.40;;;;;;;;;;4971769;28;20270;-51
2022/03/14 08:45:35;;;;;;;15.65;9.63;;;;;;;;;;4964175;28;20859;-50
2022/03/14 08:48:00;;;;;;;17.38;10.15;;;;;;;;;;4967923;28;20019;-53
2022/03/14 08:50:26;;;;;;;18.93;10.43;;;;;;;;;;4969576;28;20033;-51
2022/03/14 08:52:52;;;;;;;20.48;11.07;;;;;;;;;;4983312;28;20026;-51
2022/03/14 08:55:17;;;;;;;16.35;9.90;;;;;;;;;;4983375;28;20038;-51
2022/03/14 08:57:43;;;;;;;17.58;10.00;;;;;;;;;;4983559;28;20659;-50
2022/03/14 09:00:08;;;;;;;16.83;9.95;;;;;;;;;;4983381;28;20038;-50
2022/03/14 09:02:34;;;;;;;18.60;10.88;;;;;;;;;;4966270;28;20061;-53
2022/03/14 09:04:59;;;;;;;17.88;10.35;;;;;;;;;;4974173;28;20070;-50
2022/03/14 09:07:27;;;;;;;16.47;10.00;;;;;;;;;;4983266;28;20023;-50
2022/03/14 09:09:53;;;;;;;19.35;9.85;;;;;;;;;;4983001;28;20286;-51
2022/03/14 09:12:19;;;;;;;16.70;10.60;;;;;;;;;;4982952;28;20029;-50
2022/03/14 09:14:45;;;;;;;17.80;10.55;;;;;;;;;;4972432;28;20036;-51
2022/03/14 09:17:11;;;;;;;18.00;9.77;;;;;;;;;;4972597;28;20041;-50
2022/03/14 09:19:36;;;;;;;16.87;9.33;;;;;;;;;;4968569;28;20062;-51
2022/03/14 09:22:02;;;;;;;16.73;9.50;;;;;;;;;;4978324;28;20047;-50
2022/03/14 09:24:28;;;;;;;18.83;10.55;;;;;;;;;;4968258;28;20061;-51
2022/03/14 09:26:55;;;;;;;15.90;10.18;;;;;;;;;;4981688;28;20046;-50
2022/03/14 09:29:21;;;;;;;17.80;9.77;;;;;;;;;;4981947;28;20534;-50
2022/03/14 09:31:46;;;;;;;16.23;9.75;;;;;;;;;;4981527;28;20033;-50
2022/03/14 09:34:12;;;;;;;17.63;9.85;;;;;;;;;;4982835;28;20406;-51
2022/03/14 09:36:37;;;;;;;15.70;9.47;;;;;;;;;;4983133;28;20092;-51
2022/03/14 09:39:02;;;;;;;16.30;10.03;;;;;;;;;;4984452;28;20022;-51
2022/03/14 09:41:28;;;;;;;16.35;10.35;;;;;;;;;;4968869;28;20026;-51
2022/03/14 09:43:53;;;;;;;16.33;10.10;;;;;;;;;;4985307;28;20100;-52
2022/03/14 09:46:19;;;;;;;17.35;10.68;;;;;;;;;;4986163;28;20030;-53
2022/03/14 09:48:47;;;;;;;20.15;11.13;;;;;;;;;;4986001;28;20569;-51
2022/03/14 09:51:12;;;;;;;18.73;11.18;;;;;;;;;;4983879;28;20032;-50
2022/03/14 09:53:37;;;;;;;17.90;10.80;;;;;;;;;;4998965;28;20050;-50
2022/03/14 09:56:03;;;;;;;16.33;10.23;;;;;;;;;;4983968;28;20313;-50
2022/03/14 09:58:28;;;;;;;19.30;11.57;;;;;;;;;;4985417;28;20701;-52
2022/03/14 10:00:53;;;;;;;17.67;11.10;;;;;;;;;;4986514;28;20030;-50
2022/03/14 10:03:19;;;;;;;18.17;10.75;;;;;;;;;;4973620;28;20042;-51
2022/03/14 10:05:44;;;;;;;18.90;11.60;;;;;;;;;;4985844;28;20042;-50
2022/03/14 10:08:10;;;;;;;19.10;12.07;;;;;;;;;;4984164;28;20026;-51
2022/03/14 10:10:37;;;;;;;19.33;11.55;;;;;;;;;;4985822;28;20088;-51
2022/03/14 10:13:03;;;;;;;19.05;11.95;;;;;;;;;;5001314;28;20457;-51
2022/03/14 10:15:32;;;;;;;19.23;11.70;;;;;;;;;;4986021;28;20031;-51
2022/03/14 10:17:57;;;;;;;20.95;13.05;;;;;;;;;;4985991;28;20034;-52
2022/03/14 10:20:23;;;;;;;21.52;13.18;;;;;;;;;;4986301;28;20027;-51
2022/03/14 10:22:49;;;;;;;21.25;12.77;;;;;;;;;;4977466;28;20704;-51
2022/03/14 10:25:14;;;;;;;20.10;11.82;;;;;;;;;;4978539;28;20038;-51
2022/03/14 10:27:55;;;;;;;22.38;13.40;;;;;;;;;;4984601;28;20022;-50
2022/03/14 10:30:30;;;;;;;22.60;13.55;;;;;;;;;;4985057;28;20130;-51
2022/03/14 10:33:08;;;;;;;20.52;12.68;;;;;;;;;;4983591;28;20065;-51
2022/03/14 10:35:34;;;;;;;15.18;9.45;;;;;;;;;;4985964;28;20142;-51
2022/03/14 10:38:01;;;;;;;13.35;7.40;;;;;;;;;;4985982;28;20030;-51
2022/03/14 10:40:30;;;;;;;14.50;7.03;;;;;;;;;;4985888;28;20042;-51
2022/03/14 10:42:55;;;;;;;12.02;6.55;;;;;;;;;;4976276;28;20561;-51
2022/03/14 10:45:21;;;;;;;10.15;6.40;;;;;;;;;;4992547;28;20033;-50
2022/03/14 10:47:46;;;;;;;8.87;5.50;;;;;;;;;;5005481;28;20045;-51
2022/03/14 10:50:28;;;;;;;10.18;6.18;;;;;;;;;;4999984;28;20049;-51
2022/03/14 10:53:01;;;;;;;10.93;6.22;;;;;;;;;;4985254;28;20061;-50
2022/03/14 10:55:33;;;;;;;12.15;6.80;;;;;;;;;;4985741;28;20040;-51
2022/03/14 10:57:58;;;;;;;12.07;7.22;;;;;;;;;;4985389;28;20482;-51
2022/03/14 11:00:23;;;;;;;11.33;7.20;;;;;;;;;;4967889;28;20084;-51
2022/03/14 11:03:02;;;;;;;11.43;6.67;;;;;;;;;;4975477;28;20975;-52
2022/03/14 11:05:28;;;;;;;12.68;7.13;;;;;;;;;;4993692;28;20049;-51
2022/03/14 11:07:54;;;;;;;13.75;6.63;;;;;;;;;;5005032;28;20022;-51
2022/03/14 11:10:19;;;;;;;11.63;6.80;;;;;;;;;;5000434;28;20034;-51
2022/03/14 11:12:44;;;;;;;12.48;7.75;;;;;;;;;;4985310;28;20042;-51
2022/03/14 11:15:10;;;;;;;13.63;8.20;;;;;;;;;;4984042;28;20454;-51
2022/03/14 11:17:35;;;;;;;12.27;7.82;;;;;;;;;;4985118;28;20613;-52
2022/03/14 11:20:01;;;;;;;13.52;8.88;;;;;;;;;;4985183;28;20026;-51
2022/03/14 11:22:27;;;;;;;14.35;8.10;;;;;;;;;;4979417;28;20156;-51
2022/03/14 11:24:53;;;;;;;14.13;9.00;;;;;;;;;;4974680;28;20038;-51
2022/03/14 11:27:18;;;;;;;14.20;8.35;;;;;;;;;;4984154;28;20044;-51
2022/03/14 11:29:44;;;;;;;16.60;8.55;;;;;;;;;;4984475;28;20489;-51
2022/03/14 11:32:09;;;;;;;14.87;9.37;;;;;;;;;;4983473;28;20084;-53
2022/03/14 11:34:34;;;;;;;15.85;9.52;;;;;;;;;;4984659;28;20284;-51
2022/03/14 11:36:59;;;;;;;13.93;8.20;;;;;;;;;;4985041;28;20026;-52
2022/03/14 11:39:25;;;;;;;15.75;9.07;;;;;;;;;;4985144;28;20414;-51
2022/03/14 11:41:51;;;;;;;14.88;9.15;;;;;;;;;;4982133;28;20034;-50
2022/03/14 11:44:16;;;;;;;14.88;9.05;;;;;;;;;;4969796;28;20066;-51
2022/03/14 11:46:42;;;;;;;16.20;8.90;;;;;;;;;;4984502;28;20049;-51
2022/03/14 11:49:14;;;;;;;15.57;9.00;;;;;;;;;;4983079;28;20061;-50
2022/03/14 11:51:41;;;;;;;15.73;8.70;;;;;;;;;;4984552;28;20668;-51
2022/03/14 11:54:11;;;;;;;15.13;9.05;;;;;;;;;;4984335;28;20069;-51
2022/03/14 11:56:38;;;;;;;15.32;8.82;;;;;;;;;;4979776;28;20026;-51
2022/03/14 11:59:05;;;;;;;14.82;8.55;;;;;;;;;;4982748;28;20058;-53
2022/03/14 12:01:30;;;;;;;13.13;8.25;;;;;;;;;;4974734;28;20022;-51
2022/03/14 12:03:59;;;;;;;14.57;8.63;;;;;;;;;;4968649;28;20695;-50
2022/03/14 12:06:43;;;;;;;15.88;9.35;;;;;;;;;;4982597;28;20305;-51
2022/03/14 12:09:08;;;;;;;12.93;8.60;;;;;;;;;;4988003;28;20018;-52
2022/03/14 12:11:37;;;;;;;13.10;8.00;;;;;;;;;;4991155;28;20057;-51
2022/03/14 12:14:03;;;;;;;14.43;8.68;;;;;;;;;;4991030;28;20088;-51
2022/03/14 12:16:39;;;;;;;15.48;8.98;;;;;;;;;;4990568;28;20034;-51
2022/03/14 12:19:23;;;;;;;13.85;8.45;;;;;;;;;;4987328;28;20030;-51
2022/03/14 12:21:52;;;;;;;13.55;8.80;;;;;;;;;;4987447;28;20113;-51
2022/03/14 12:24:21;;;;;;;14.68;8.50;;;;;;;;;;4972186;28;20038;-51
2022/03/14 12:26:46;;;;;;;14.60;8.95;;;;;;;;;;4984667;28;20066;-51
2022/03/14 12:29:30;;;;;;;13.82;8.05;;;;;;;;;;4983412;28;20061;-51
2022/03/14 12:32:14;;;;;;;13.23;8.35;;;;;;;;;;4982931;28;20066;-51
2022/03/14 12:34:39;;;;;;;14.25;8.80;;;;;;;;;;4982398;28;20022;-51
2022/03/14 12:37:20;;;;;;;13.60;8.60;;;;;;;;;;4982522;28;20069;-51
2022/03/14 12:39:45;;;;;;;13.45;7.65;;;;;;;;;;4979392;28;20274;-52
2022/03/14 12:42:21;;;;;;;13.95;7.97;;;;;;;;;;4981811;28;20030;-50
2022/03/14 12:45:05;;;;;;;12.63;7.75;;;;;;;;;;4981043;28;20041;-49
2022/03/14 12:47:31;;;;;;;12.13;7.50;;;;;;;;;;4982075;28;20097;-53
2022/03/14 12:49:56;;;;;;;13.60;7.78;;;;;;;;;;4982019;28;20139;-53
2022/03/14 12:52:21;;;;;;;13.73;8.20;;;;;;;;;;4982323;28;20350;-52
2022/03/14 12:54:47;;;;;;;13.00;7.25;;;;;;;;;;4982278;28;20426;-51
2022/03/14 12:57:12;;;;;;;13.52;7.68;;;;;;;;;;4981216;28;20032;-51
2022/03/14 12:59:41;;;;;;;13.30;7.75;;;;;;;;;;4981437;28;20041;-52
2022/03/14 13:02:22;;;;;;;11.77;6.63;;;;;;;;;;4963544;28;20015;-51
2022/03/14 13:04:57;;;;;;;12.55;7.32;;;;;;;;;;4978752;28;20119;-52
2022/03/14 13:07:23;;;;;;;12.63;7.25;;;;;;;;;;4980320;28;20812;-51
2022/03/14 13:09:51;;;;;;;12.10;7.93;;;;;;;;;;4982588;28;20022;-52
2022/03/14 13:12:17;;;;;;;10.98;6.75;;;;;;;;;;4978938;28;20465;-52
2022/03/14 13:14:43;;;;;;;11.50;6.73;;;;;;;;;;4977584;28;20019;-51
2022/03/14 13:17:08;;;;;;;14.23;8.68;;;;;;;;;;4976754;28;21141;-52
2022/03/14 13:19:35;;;;;;;14.13;7.63;;;;;;;;;;4969140;28;20109;-52
2022/03/14 13:22:10;;;;;;;13.30;7.60;;;;;;;;;;4982133;28;20269;-51
2022/03/14 13:24:35;;;;;;;11.25;6.68;;;;;;;;;;4982483;28;20140;-51
2022/03/14 13:27:00;;;;;;;11.30;7.10;;;;;;;;;;4982213;28;20518;-51
2022/03/14 13:29:25;;;;;;;10.77;6.90;;;;;;;;;;4977049;28;20042;-50
2022/03/14 13:31:51;;;;;;;14.87;7.73;;;;;;;;;;4961803;28;20030;-52
2022/03/14 13:34:19;;;;;;;12.75;7.82;;;;;;;;;;4979896;28;20089;-51
2022/03/14 13:36:51;;;;;;;15.23;8.40;;;;;;;;;;4980930;28;20030;-50
2022/03/14 13:39:17;;;;;;;14.25;8.27;;;;;;;;;;4980000;28;20026;-52
2022/03/14 13:41:45;;;;;;;12.23;8.27;;;;;;;;;;4976093;28;20105;-51
2022/03/14 13:44:14;;;;;;;12.57;8.30;;;;;;;;;;4970367;28;20042;-52
2022/03/14 13:46:43;;;;;;;16.52;9.70;;;;;;;;;;4975809;28;20097;-52
2022/03/14 13:49:20;;;;;;;17.07;9.37;;;;;;;;;;4982082;28;20027;-51
2022/03/14 13:51:49;;;;;;;14.45;8.35;;;;;;;;;;4982024;28;20069;-51
2022/03/14 13:54:18;;;;;;;13.90;8.90;;;;;;;;;;4976544;28;20116;-51
2022/03/14 13:56:47;;;;;;;15.07;8.87;;;;;;;;;;4973247;28;20049;-53
2022/03/14 13:59:23;;;;;;;15.35;9.60;;;;;;;;;;4972917;28;20065;-50
2022/03/14 14:01:51;;;;;;;15.32;9.82;;;;;;;;;;4976184;28;20022;-52
2022/03/14 14:04:23;;;;;;;15.98;10.35;;;;;;;;;;4971981;28;20502;-52
2022/03/14 14:06:50;;;;;;;15.80;9.65;;;;;;;;;;4978694;28;20040;-52
2022/03/14 14:09:25;;;;;;;14.82;9.48;;;;;;;;;;4979073;28;20030;-51
2022/03/14 14:11:56;;;;;;;14.68;9.07;;;;;;;;;;4981727;28;20030;-51
2022/03/14 14:14:25;;;;;;;16.70;10.48;;;;;;;;;;4981727;28;20034;-51
2022/03/14 14:16:51;;;;;;;16.13;9.65;;;;;;;;;;4981989;28;20043;-52
2022/03/14 14:19:16;;;;;;;16.13;9.77;;;;;;;;;;4982504;28;20134;-52